Time;durP1;ratioP1;P1;durP2;ratioP2;P2;SDS_P1;SDS_P2;PMS_P1;PMS_P2;Temp;Humidity;BMP_temperature;BMP_pressure;BME280_temperature;BME280_humidity;BME280_pressure;Samples;Min_cycle;Max_cycle;Signal;HPM_P1;HPM_P2
2020/12/15 00:00:36;;;;;;;12.83;8.50;;;;;;;5.20;76.93;94894.53;5011563;28;20263;-73
2020/12/15 00:03:02;;;;;;;13.13;9.27;;;;;;;5.29;76.30;94903.28;5011947;28;20251;-74
2020/12/15 00:05:27;;;;;;;15.83;9.23;;;;;;;5.15;77.38;94902.63;5011742;28;20231;-74
2020/12/15 00:07:53;;;;;;;13.13;7.83;;;;;;;5.09;77.81;94901.22;5012071;28;20173;-74
2020/12/15 00:10:18;;;;;;;15.80;8.33;;;;;;;5.10;77.46;94897.47;5012085;28;20522;-73
2020/12/15 00:12:44;;;;;;;12.87;8.73;;;;;;;5.10;76.65;94900.13;5011989;28;20187;-72
2020/12/15 00:15:09;;;;;;;13.07;7.60;;;;;;;5.24;76.94;94901.56;5011797;28;20168;-72
2020/12/15 00:17:35;;;;;;;12.53;8.07;;;;;;;5.25;77.13;94900.47;5011657;28;20694;-73
2020/12/15 00:20:00;;;;;;;13.07;8.17;;;;;;;5.30;76.43;94905.59;5011696;28;20177;-73
2020/12/15 00:22:26;;;;;;;11.10;6.87;;;;;;;5.22;75.36;94905.63;5011833;28;20711;-74
2020/12/15 00:24:51;;;;;;;13.10;7.67;;;;;;;5.16;75.53;94904.19;5010446;28;20176;-74
2020/12/15 00:27:17;;;;;;;9.87;7.10;;;;;;;5.18;76.56;94902.78;5011836;28;20233;-74
2020/12/15 00:29:42;;;;;;;15.90;8.23;;;;;;;4.89;76.31;94900.72;5011809;28;20211;-73
2020/12/15 00:32:10;;;;;;;12.37;7.50;;;;;;;5.22;76.03;94901.09;5011410;28;20205;-73
2020/12/15 00:34:36;;;;;;;11.80;6.93;;;;;;;5.04;76.14;94900.28;5011507;28;20169;-74
2020/12/15 00:37:02;;;;;;;10.63;6.77;;;;;;;4.98;76.19;94898.09;5011506;28;20615;-73
2020/12/15 00:39:27;;;;;;;11.07;7.13;;;;;;;5.12;76.33;94897.97;5011653;28;20173;-73
2020/12/15 00:41:53;;;;;;;13.03;7.50;;;;;;;5.24;76.47;94895.47;5011424;28;20548;-73
2020/12/15 00:44:18;;;;;;;14.43;7.77;;;;;;;5.16;76.48;94896.25;5011769;28;20181;-73
2020/12/15 00:46:49;;;;;;;12.40;7.47;;;;;;;5.14;76.42;94891.25;5011359;28;20671;-72
2020/12/15 00:49:14;;;;;;;11.67;7.53;;;;;;;5.25;76.54;94889.09;5011421;28;20199;-72
2020/12/15 00:51:40;;;;;;;13.67;7.60;;;;;;;5.15;75.37;94892.81;5010962;28;21169;-72
2020/12/15 00:54:05;;;;;;;13.23;8.27;;;;;;;5.32;75.69;94887.53;5011499;28;20204;-72
2020/12/15 00:56:31;;;;;;;14.83;8.13;;;;;;;5.28;76.13;94885.84;5011500;28;20173;-73
2020/12/15 00:58:57;;;;;;;12.47;7.97;;;;;;;5.34;76.45;94895.19;5011389;28;20557;-73
2020/12/15 01:01:22;;;;;;;12.33;7.57;;;;;;;5.19;75.33;94887.69;5010911;28;20739;-73
2020/12/15 01:03:48;;;;;;;12.00;7.20;;;;;;;5.11;75.98;94886.59;5010915;28;20655;-73
2020/12/15 01:06:13;;;;;;;12.03;7.57;;;;;;;5.21;75.90;94886.28;5011378;28;20209;-75
2020/12/15 01:08:39;;;;;;;11.57;7.07;;;;;;;5.14;75.95;94883.31;5011066;28;20184;-74
2020/12/15 01:11:04;;;;;;;13.83;7.67;;;;;;;5.17;76.93;94882.72;5011463;28;20200;-73
2020/12/15 01:13:30;;;;;;;10.37;7.03;;;;;;;5.09;76.76;94882.69;5015054;28;20208;-73
2020/12/15 01:15:55;;;;;;;15.20;8.53;;;;;;;5.04;76.11;94875.66;5015052;28;20668;-73
2020/12/15 01:18:21;;;;;;;12.97;7.30;;;;;;;5.14;76.30;94879.91;5014929;28;20180;-73
2020/12/15 01:20:46;;;;;;;14.83;7.67;;;;;;;5.18;75.22;94872.91;5014581;28;20215;-74
2020/12/15 01:23:12;;;;;;;13.67;7.40;;;;;;;5.13;75.61;94881.75;5015062;28;20192;-74
2020/12/15 01:25:37;;;;;;;11.13;6.97;;;;;;;5.04;75.34;94880.97;5014731;28;20165;-74
2020/12/15 01:28:03;;;;;;;13.10;7.53;;;;;;;4.94;76.04;94886.56;5014739;28;20237;-75
2020/12/15 01:30:28;;;;;;;10.40;6.80;;;;;;;4.83;76.83;94880.00;5014617;28;20177;-74
2020/12/15 01:32:54;;;;;;;12.50;7.70;;;;;;;5.12;75.41;94882.09;5014986;28;20177;-73
2020/12/15 01:35:21;;;;;;;14.67;8.00;;;;;;;4.75;76.88;94890.25;5014406;28;20592;-74
2020/12/15 01:37:47;;;;;;;10.95;7.07;;;;;;;4.70;77.05;94884.31;5014710;28;20640;-74
2020/12/15 01:40:12;;;;;;;13.33;8.60;;;;;;;5.00;76.15;94899.34;5014375;28;20219;-74
2020/12/15 01:42:38;;;;;;;11.90;7.27;;;;;;;4.88;75.61;94888.59;5014481;28;20695;-74
2020/12/15 01:45:05;;;;;;;12.83;7.13;;;;;;;4.82;75.71;94902.25;5014618;28;20208;-74
2020/12/15 01:47:30;;;;;;;12.30;7.22;;;;;;;4.81;76.91;94895.41;5014469;28;20177;-75
2020/12/15 01:49:56;;;;;;;12.67;8.17;;;;;;;4.88;76.39;94888.59;5013248;28;20185;-74
2020/12/15 01:52:21;;;;;;;13.77;8.07;;;;;;;4.84;76.79;94908.03;5014168;28;20652;-72
2020/12/15 01:54:47;;;;;;;11.77;7.47;;;;;;;4.94;75.95;94902.44;4997125;28;20193;-74
2020/12/15 01:57:12;;;;;;;14.97;8.37;;;;;;;4.92;75.80;94904.59;5013022;28;20212;-74
2020/12/15 01:59:38;;;;;;;15.43;7.73;;;;;;;4.79;76.26;94885.13;5013168;28;20264;-74
2020/12/15 02:02:03;;;;;;;16.17;8.40;;;;;;;4.81;75.75;94898.03;5013950;28;20295;-73
2020/12/15 02:04:29;;;;;;;16.00;8.47;;;;;;;4.84;77.34;94902.72;5014304;28;20563;-74
2020/12/15 02:06:54;;;;;;;14.07;7.57;;;;;;;4.96;76.52;94892.31;5013995;28;20206;-73
2020/12/15 02:09:20;;;;;;;13.33;7.80;;;;;;;4.91;75.97;94897.75;5014132;28;20216;-76
2020/12/15 02:11:46;;;;;;;13.63;8.37;;;;;;;4.53;75.54;94840.09;5014475;28;20215;-75
2020/12/15 02:14:12;;;;;;;13.13;8.48;;;;;;;4.87;75.99;94897.59;5013984;28;20669;-75
2020/12/15 02:16:39;;;;;;;13.40;7.75;;;;;;;4.83;76.22;94893.25;5012956;28;20271;-78
2020/12/15 02:19:05;;;;;;;11.50;7.03;;;;;;;4.78;75.78;94878.28;5014084;28;20169;-78
2020/12/15 02:21:31;;;;;;;13.87;8.40;;;;;;;4.75;75.63;94884.19;5012825;28;20208;-76
2020/12/15 02:23:56;;;;;;;12.23;7.40;;;;;;;4.81;75.65;94887.47;5012522;28;20673;-77
2020/12/15 02:26:22;;;;;;;15.70;8.57;;;;;;;4.90;75.80;94890.91;5013875;28;20221;-74
2020/12/15 02:28:47;;;;;;;15.20;8.40;;;;;;;4.80;74.64;94891.19;5013581;28;20216;-77
2020/12/15 02:31:13;;;;;;;13.17;7.60;;;;;;;4.71;75.72;94894.63;5012750;28;20231;-76
2020/12/15 02:33:38;;;;;;;11.93;7.17;;;;;;;4.97;76.26;94907.13;5013740;28;20193;-78
2020/12/15 02:36:04;;;;;;;13.80;7.80;;;;;;;5.06;75.40;94913.22;5013623;28;20177;-75
2020/12/15 02:38:29;;;;;;;14.53;8.10;;;;;;;5.00;75.67;94891.41;5013829;28;20554;-75
2020/12/15 02:40:56;;;;;;;18.03;8.87;;;;;;;4.82;76.56;94900.38;5013643;28;20189;-77
2020/12/15 02:43:22;;;;;;;13.07;7.35;;;;;;;5.15;75.69;94899.97;5012560;28;20165;-77
2020/12/15 02:45:47;;;;;;;15.73;6.73;;;;;;;4.84;75.52;94895.56;5013439;28;20618;-77
2020/12/15 02:48:13;;;;;;;11.07;7.63;;;;;;;4.95;74.61;94901.34;5013670;28;20291;-77
2020/12/15 02:50:39;;;;;;;11.77;6.63;;;;;;;4.93;75.49;94903.50;5013453;28;20176;-75
2020/12/15 02:53:04;;;;;;;12.27;6.77;;;;;;;4.91;75.04;94903.06;5013655;28;20200;-75
2020/12/15 02:55:30;;;;;;;12.50;7.23;;;;;;;5.03;75.11;94903.22;5013439;28;20207;-78
2020/12/15 02:57:55;;;;;;;11.13;7.20;;;;;;;5.01;75.79;94902.78;5013412;28;20212;-75
2020/12/15 03:00:21;;;;;;;11.20;6.53;;;;;;;4.91;75.41;94903.84;5013425;28;20165;-78
2020/12/15 03:02:48;;;;;;;13.50;6.67;;;;;;;4.81;75.31;94901.47;5013045;28;20212;-75
2020/12/15 03:05:13;;;;;;;11.18;6.90;;;;;;;4.82;75.51;94908.31;5013334;28;20185;-77
2020/12/15 03:07:39;;;;;;;12.30;7.37;;;;;;;4.88;75.90;94908.94;5012905;28;20266;-75
2020/12/15 03:10:05;;;;;;;11.10;7.30;;;;;;;4.89;76.48;94908.66;5013395;28;20181;-78
2020/12/15 03:12:31;;;;;;;13.27;7.23;;;;;;;4.89;75.88;94910.53;5013057;28;20181;-77
2020/12/15 03:14:56;;;;;;;12.07;7.27;;;;;;;4.84;75.58;94908.81;5013036;28;20942;-77
2020/12/15 03:17:22;;;;;;;13.13;7.37;;;;;;;4.87;76.29;94917.97;5012835;28;20675;-78
2020/12/15 03:19:47;;;;;;;11.23;7.67;;;;;;;4.92;76.05;94915.97;5013023;28;20180;-80
2020/12/15 03:22:16;;;;;;;11.93;7.10;;;;;;;4.93;74.94;94919.38;5012808;28;20244;-79
2020/12/15 03:24:42;;;;;;;12.95;7.90;;;;;;;5.01;75.66;94923.94;5012923;28;20546;-81
2020/12/15 03:27:07;;;;;;;13.03;7.10;;;;;;;4.98;75.55;94932.47;5012939;28;20251;-79
2020/12/15 03:29:33;;;;;;;12.40;6.77;;;;;;;4.91;75.85;94919.72;5012709;28;20216;-80
2020/12/15 03:31:58;;;;;;;10.20;6.43;;;;;;;5.11;76.02;94923.66;5012825;28;20197;-78
2020/12/15 03:34:24;;;;;;;14.90;7.30;;;;;;;5.13;75.27;94928.63;5012004;28;20173;-79
2020/12/15 03:36:49;;;;;;;11.60;7.20;;;;;;;4.69;75.75;94893.34;5013049;28;20168;-77
2020/12/15 03:39:15;;;;;;;13.00;6.53;;;;;;;4.75;76.27;94900.06;5012620;28;20236;-80
2020/12/15 03:41:40;;;;;;;13.50;6.50;;;;;;;4.88;75.66;94936.22;5012802;28;20295;-75
2020/12/15 03:44:06;;;;;;;10.53;6.50;;;;;;;4.85;76.62;94920.94;5012762;28;20535;-76
2020/12/15 03:46:31;;;;;;;10.10;6.87;;;;;;;4.88;77.13;94930.13;5012744;28;20217;-77
2020/12/15 03:48:57;;;;;;;10.77;6.17;;;;;;;4.93;75.65;94933.41;5012453;28;20192;-80
2020/12/15 03:51:22;;;;;;;12.63;7.57;;;;;;;5.06;74.94;94954.78;5012447;28;20215;-78
2020/12/15 03:53:48;;;;;;;11.20;7.37;;;;;;;5.10;75.11;94953.06;5012626;28;20204;-76
2020/12/15 03:56:14;;;;;;;14.80;7.70;;;;;;;5.02;75.48;94952.75;5012336;28;20195;-79
2020/12/15 03:58:40;;;;;;;11.10;7.30;;;;;;;4.94;75.34;94945.56;5012500;28;20239;-79
2020/12/15 04:01:06;;;;;;;11.70;6.53;;;;;;;4.99;75.75;94953.38;5000360;28;20247;-79
2020/12/15 04:03:31;;;;;;;11.93;6.87;;;;;;;4.91;76.11;94940.09;5011370;28;20695;-79
2020/12/15 04:05:57;;;;;;;13.40;6.77;;;;;;;5.05;76.23;94961.94;5011875;28;20584;-78
2020/12/15 04:08:23;;;;;;;9.67;6.13;;;;;;;5.19;74.44;94962.59;5012139;28;20259;-79
2020/12/15 04:10:49;;;;;;;12.33;7.20;;;;;;;5.28;74.79;94971.34;5011633;28;20596;-75
2020/12/15 04:13:16;;;;;;;11.40;6.77;;;;;;;5.33;74.38;94959.78;5011040;28;20228;-78
2020/12/15 04:15:41;;;;;;;13.50;6.80;;;;;;;5.09;75.40;94956.78;5011941;28;20569;-78
2020/12/15 04:18:07;;;;;;;11.77;6.47;;;;;;;5.20;75.73;94969.44;5011627;28;20688;-75
2020/12/15 04:20:33;;;;;;;10.13;6.50;;;;;;;4.92;75.44;94974.19;5011567;28;20173;-79
2020/12/15 04:22:58;;;;;;;13.20;7.03;;;;;;;5.00;75.82;94970.03;5011031;28;20166;-80
2020/12/15 04:25:24;;;;;;;11.23;6.50;;;;;;;4.94;75.75;94952.72;5011614;28;20204;-74
2020/12/15 04:27:49;;;;;;;11.47;6.53;;;;;;;5.09;75.67;94978.75;5028918;28;20254;-78
2020/12/15 04:30:15;;;;;;;11.10;5.97;;;;;;;4.92;76.22;94968.88;5029481;28;20242;-74
2020/12/15 04:32:40;;;;;;;9.53;5.50;;;;;;;5.01;75.48;94976.88;5031191;28;20180;-79
2020/12/15 04:35:06;;;;;;;11.37;6.23;;;;;;;5.06;75.91;94978.59;5030541;28;20690;-78
2020/12/15 04:37:31;;;;;;;10.33;6.17;;;;;;;5.26;75.40;94984.09;5031141;28;20654;-76
2020/12/15 04:39:57;;;;;;;10.00;5.93;;;;;;;5.25;75.74;94993.13;5031758;28;20264;-76
2020/12/15 04:42:23;;;;;;;10.17;6.47;;;;;;;5.23;75.17;94976.78;5031754;28;20235;-77
2020/12/15 04:44:49;;;;;;;13.83;7.07;;;;;;;5.18;75.08;94992.78;5030360;28;20207;-77
2020/12/15 04:47:33;;;;;;;10.73;6.22;;;;;;;5.30;74.35;95000.91;5035424;28;20172;-75
2020/12/15 04:50:05;;;;;;;11.03;6.50;;;;;;;5.21;75.23;95007.28;5035748;28;20666;-74
2020/12/15 04:52:59;;;;;;;9.97;6.67;;;;;;;5.17;75.69;95001.06;5035581;28;21179;-74
2020/12/15 04:55:25;;;;;;;10.10;6.43;;;;;;;5.31;75.42;95001.69;5035552;28;20579;-74
2020/12/15 04:57:51;;;;;;;11.03;6.50;;;;;;;5.23;74.69;95005.91;5035309;28;20981;-75
2020/12/15 05:00:16;;;;;;;9.63;6.30;;;;;;;5.25;75.53;95001.06;5017174;28;20334;-75
2020/12/15 05:02:44;;;;;;;9.60;5.87;;;;;;;5.18;74.50;95008.69;5035070;28;20299;-76
2020/12/15 05:05:09;;;;;;;9.10;5.60;;;;;;;5.22;74.64;95011.50;5034979;28;20184;-73
2020/12/15 05:07:42;;;;;;;8.37;5.70;;;;;;;5.35;74.98;95015.13;5035055;28;20626;-74
2020/12/15 05:10:18;;;;;;;10.87;6.27;;;;;;;5.07;74.95;95017.22;5034614;28;20658;-73
2020/12/15 05:12:44;;;;;;;10.37;6.23;;;;;;;5.10;74.61;95022.66;5035071;28;20595;-74
2020/12/15 05:15:10;;;;;;;9.67;6.00;;;;;;;5.31;74.88;95022.88;5033998;28;20587;-73
2020/12/15 05:17:36;;;;;;;9.97;6.47;;;;;;;5.34;75.26;95026.78;5034751;28;20610;-73
2020/12/15 05:20:03;;;;;;;11.17;6.10;;;;;;;5.28;75.69;95026.94;5034606;28;20595;-75
2020/12/15 05:22:42;;;;;;;10.07;6.23;;;;;;;5.37;74.81;95029.59;5034958;28;20204;-73
2020/12/15 05:25:09;;;;;;;10.97;7.47;;;;;;;5.40;75.69;95033.50;5035192;28;20601;-75
2020/12/15 05:27:41;;;;;;;8.45;5.65;;;;;;;5.31;74.20;95026.31;5033442;28;20644;-75
2020/12/15 05:30:08;;;;;;;10.30;6.43;;;;;;;5.43;74.59;95025.72;5034637;28;20603;-74
2020/12/15 05:32:33;;;;;;;11.03;6.80;;;;;;;5.35;75.22;95025.69;5034731;28;20590;-74
2020/12/15 05:35:06;;;;;;;9.60;6.00;;;;;;;5.30;75.45;95022.09;5034828;28;20582;-73
2020/12/15 05:37:32;;;;;;;12.80;6.25;;;;;;;5.51;74.62;95034.78;5035416;28;20283;-75
2020/12/15 05:40:01;;;;;;;7.63;5.97;;;;;;;5.60;75.37;95034.78;5034596;28;20608;-76
2020/12/15 05:42:27;;;;;;;10.23;6.10;;;;;;;5.52;74.66;95038.97;5033281;28;20208;-76
2020/12/15 05:44:52;;;;;;;8.63;5.93;;;;;;;5.54;74.36;95039.44;5034704;28;21348;-77
2020/12/15 05:47:22;;;;;;;10.03;6.57;;;;;;;5.41;74.20;95037.72;5016927;28;20176;-76
2020/12/15 05:49:48;;;;;;;7.77;6.13;;;;;;;5.51;73.84;95048.78;5034567;28;20180;-76
2020/12/15 05:52:13;;;;;;;8.90;5.63;;;;;;;5.51;75.00;95043.50;5033595;28;21167;-79
2020/12/15 05:54:39;;;;;;;8.80;6.30;;;;;;;5.54;74.84;95050.81;5034474;28;20176;-75
2020/12/15 05:57:05;;;;;;;12.00;6.10;;;;;;;5.53;74.15;95041.31;5034178;28;20270;-77
2020/12/15 05:59:31;;;;;;;9.83;5.70;;;;;;;5.49;74.25;95029.00;5033811;28;20246;-74
2020/12/15 06:02:10;;;;;;;10.00;5.63;;;;;;;5.56;74.33;95050.53;5026631;28;21053;-74
2020/12/15 06:04:36;;;;;;;8.80;5.43;;;;;;;5.62;73.88;95037.91;5028179;28;20713;-75
2020/12/15 06:07:03;;;;;;;9.43;6.47;;;;;;;5.60;74.28;95035.56;5034707;28;20562;-72
2020/12/15 06:09:30;;;;;;;10.63;6.30;;;;;;;5.60;73.79;95032.13;5033206;28;21085;-74
2020/12/15 06:11:55;;;;;;;9.17;5.57;;;;;;;5.61;73.47;95044.28;5033904;28;20555;-74
2020/12/15 06:14:23;;;;;;;9.57;6.80;;;;;;;5.37;72.83;95029.59;5021093;28;20572;-73
2020/12/15 06:16:48;;;;;;;6.67;4.97;;;;;;;5.49;73.01;95042.22;5012179;28;20177;-72
2020/12/15 06:19:14;;;;;;;10.90;6.10;;;;;;;5.74;73.33;95041.50;5025849;28;20609;-73
2020/12/15 06:21:50;;;;;;;9.33;6.10;;;;;;;5.57;72.97;95052.84;5032255;28;20212;-73
2020/12/15 06:24:22;;;;;;;9.27;6.23;;;;;;;5.52;74.05;95041.63;5033090;28;20168;-72
2020/12/15 06:26:53;;;;;;;10.33;6.33;;;;;;;5.70;73.11;95050.38;5033067;28;20627;-71
2020/12/15 06:29:35;;;;;;;10.13;6.13;;;;;;;5.56;73.56;95055.81;5033779;28;20566;-71
2020/12/15 06:32:02;;;;;;;10.57;6.37;;;;;;;5.73;73.62;95058.50;5032990;28;20650;-72
2020/12/15 06:34:29;;;;;;;10.43;5.77;;;;;;;5.68;72.54;95055.22;5020624;28;20606;-71
2020/12/15 06:36:55;;;;;;;9.65;5.90;;;;;;;5.45;75.35;95060.63;5013304;28;20575;-72
2020/12/15 06:39:22;;;;;;;10.50;7.10;;;;;;;5.55;74.19;95056.88;5017243;28;20184;-70
2020/12/15 06:41:58;;;;;;;9.33;6.40;;;;;;;5.72;73.74;95053.50;5032733;28;20301;-73
2020/12/15 06:44:34;;;;;;;10.17;6.97;;;;;;;5.72;74.25;95050.84;5021040;28;20702;-73
2020/12/15 06:47:00;;;;;;;13.17;6.27;;;;;;;5.93;73.57;95064.31;5013154;28;20675;-73
2020/12/15 06:49:32;;;;;;;8.27;5.27;;;;;;;5.96;72.13;95061.06;5013159;28;20622;-73
2020/12/15 06:52:06;;;;;;;11.10;5.53;;;;;;;5.90;72.32;95056.97;5012982;28;20554;-72
2020/12/15 06:54:34;;;;;;;8.87;5.33;;;;;;;5.86;73.38;95056.81;5011555;28;20954;-73
2020/12/15 06:57:07;;;;;;;9.50;5.93;;;;;;;5.95;71.75;95064.78;5012897;28;20580;-73
2020/12/15 06:59:40;;;;;;;9.73;5.70;;;;;;;5.90;72.07;95057.75;5013350;28;20560;-69
2020/12/15 07:02:13;;;;;;;8.60;5.47;;;;;;;5.84;72.92;95066.94;5013154;28;21067;-72
2020/12/15 07:04:46;;;;;;;9.20;5.33;;;;;;;5.74;74.14;95072.53;5021194;28;21026;-71
2020/12/15 07:07:12;;;;;;;10.20;5.90;;;;;;;5.85;74.81;95076.44;5011962;28;20580;-73
2020/12/15 07:09:38;;;;;;;9.10;6.00;;;;;;;5.89;73.22;95074.72;5012170;28;20576;-72
2020/12/15 07:12:16;;;;;;;9.03;5.03;;;;;;;5.87;72.56;95070.81;5012595;28;20619;-71
2020/12/15 07:14:48;;;;;;;8.23;5.60;;;;;;;5.80;74.17;95071.28;5017438;28;20991;-72
2020/12/15 07:17:14;;;;;;;9.87;5.27;;;;;;;5.96;73.29;95075.09;5032142;28;20594;-70
2020/12/15 07:19:40;;;;;;;9.67;5.13;;;;;;;5.93;73.11;95081.00;5031347;28;20547;-77
2020/12/15 07:22:06;;;;;;;9.27;5.90;;;;;;;6.03;72.45;95083.34;5017685;28;20774;-74
2020/12/15 07:24:31;;;;;;;10.17;5.40;;;;;;;6.12;71.71;95087.88;5011929;28;20249;-71
2020/12/15 07:26:58;;;;;;;9.67;5.70;;;;;;;6.10;72.04;95081.00;5012289;28;20723;-72
2020/12/15 07:29:24;;;;;;;11.23;7.07;;;;;;;6.12;73.64;95088.66;5012509;28;20176;-72
2020/12/15 07:31:49;;;;;;;10.80;6.70;;;;;;;6.20;73.47;95093.19;5012234;28;20584;-72
2020/12/15 07:34:18;;;;;;;10.80;6.57;;;;;;;6.33;71.54;95091.47;5022099;28;20586;-73
2020/12/15 07:36:45;;;;;;;14.30;7.87;;;;;;;6.30;73.42;95100.06;5015598;28;20264;-71
2020/12/15 07:39:10;;;;;;;15.03;6.93;;;;;;;6.27;73.93;95105.97;5011199;28;20584;-70
2020/12/15 07:41:39;;;;;;;12.37;6.53;;;;;;;6.44;71.35;95105.19;5012039;28;20647;-72
2020/12/15 07:44:10;;;;;;;12.93;8.03;;;;;;;6.46;71.09;95103.81;5012162;28;20268;-72
2020/12/15 07:46:36;;;;;;;20.20;11.43;;;;;;;6.26;71.03;95101.75;5012266;28;21165;-74
2020/12/15 07:49:04;;;;;;;22.43;12.57;;;;;;;6.15;71.67;95111.91;5012061;28;20591;-75
2020/12/15 07:51:30;;;;;;;21.57;12.20;;;;;;;6.25;72.67;95110.81;5012701;28;20591;-71
2020/12/15 07:53:57;;;;;;;23.70;12.93;;;;;;;6.24;72.01;95112.69;5016571;28;20594;-74
2020/12/15 07:56:23;;;;;;;20.10;12.47;;;;;;;6.28;73.17;95118.13;5031727;28;20586;-74
2020/12/15 07:58:52;;;;;;;22.47;12.80;;;;;;;6.17;72.91;95122.19;5031580;28;20657;-74
2020/12/15 08:01:24;;;;;;;19.70;12.20;;;;;;;6.06;74.78;95117.19;5031790;28;20196;-75
2020/12/15 08:04:06;;;;;;;19.77;12.17;;;;;;;6.32;72.36;95114.56;5030900;28;21051;-74
2020/12/15 08:06:38;;;;;;;16.77;9.77;;;;;;;6.41;71.01;95124.41;5032133;28;20579;-73
2020/12/15 08:09:04;;;;;;;15.00;8.83;;;;;;;6.45;71.22;95112.81;5031789;28;21011;-75
2020/12/15 08:11:30;;;;;;;20.00;10.23;;;;;;;6.45;71.72;95122.66;5031797;28;20627;-74
2020/12/15 08:13:56;;;;;;;23.27;10.83;;;;;;;6.52;70.70;95120.34;5026327;28;21224;-75
2020/12/15 08:16:21;;;;;;;19.30;10.57;;;;;;;6.53;70.54;95121.91;4994367;28;20231;-74
2020/12/15 08:18:47;;;;;;;18.00;10.27;;;;;;;6.48;71.01;95128.13;5010701;28;20231;-73
2020/12/15 08:21:16;;;;;;;15.53;9.03;;;;;;;6.41;71.06;95133.13;4994187;28;20374;-74
2020/12/15 08:23:47;;;;;;;17.47;10.23;;;;;;;6.46;73.16;95132.19;5011722;28;20185;-74
2020/12/15 08:26:15;;;;;;;18.37;7.17;;;;;;;6.50;71.87;95128.59;5010641;28;20647;-74
2020/12/15 08:28:41;;;;;;;11.97;7.60;;;;;;;6.35;72.00;95123.78;4994266;28;20599;-74
2020/12/15 08:31:10;;;;;;;15.63;8.47;;;;;;;6.57;71.98;95136.09;5011486;28;21176;-72
2020/12/15 08:33:36;;;;;;;11.83;7.33;;;;;;;6.74;71.44;95135.31;5027241;28;20564;-73
2020/12/15 08:36:01;;;;;;;12.93;7.30;;;;;;;6.76;71.42;95139.19;5011576;28;20686;-72
2020/12/15 08:38:27;;;;;;;11.73;6.87;;;;;;;6.73;71.06;95145.13;5011531;28;20772;-73
2020/12/15 08:40:53;;;;;;;15.53;7.90;;;;;;;6.73;69.69;95125.78;5011543;28;20207;-72
2020/12/15 08:43:19;;;;;;;10.10;5.70;;;;;;;6.90;70.06;95139.00;5011567;28;20173;-74
2020/12/15 08:45:45;;;;;;;12.07;5.20;;;;;;;6.71;70.02;95135.94;5009223;28;20706;-74
2020/12/15 08:48:15;;;;;;;10.50;5.30;;;;;;;6.61;70.69;95137.03;5030871;28;20188;-73
2020/12/15 08:50:41;;;;;;;8.33;5.77;;;;;;;6.82;70.02;95137.94;5031013;28;20637;-74
2020/12/15 08:53:07;;;;;;;7.80;4.73;;;;;;;6.85;68.84;95137.31;5031015;28;20597;-75
2020/12/15 08:55:33;;;;;;;7.57;5.13;;;;;;;6.83;68.71;95138.72;5030854;28;20168;-71
2020/12/15 08:58:03;;;;;;;7.20;4.67;;;;;;;6.82;68.34;95139.81;5030711;28;20601;-73
2020/12/15 09:00:33;;;;;;;8.30;4.80;;;;;;;6.93;69.80;95151.66;5030717;28;20563;-75
2020/12/15 09:03:07;;;;;;;12.37;6.27;;;;;;;6.89;69.71;95146.19;5030883;28;20669;-75
2020/12/15 09:05:43;;;;;;;12.63;8.43;;;;;;;6.92;70.49;95141.38;5029317;28;20607;-75
2020/12/15 09:08:09;;;;;;;23.77;11.30;;;;;;;6.93;70.06;95137.63;5031245;28;20582;-74
2020/12/15 09:10:34;;;;;;;17.43;10.73;;;;;;;6.98;70.42;95137.47;5030871;28;20598;-74
2020/12/15 09:13:00;;;;;;;25.30;12.53;;;;;;;6.89;70.48;95145.44;5031313;28;20547;-75
2020/12/15 09:15:25;;;;;;;16.87;9.97;;;;;;;7.05;68.86;95138.53;5015221;28;20223;-75
2020/12/15 09:17:51;;;;;;;14.53;9.20;;;;;;;7.12;69.19;95136.16;5011257;28;20205;-76
2020/12/15 09:20:26;;;;;;;22.67;10.93;;;;;;;7.10;69.45;95137.59;5011545;28;20165;-76
2020/12/15 09:22:52;;;;;;;24.03;10.30;;;;;;;7.14;69.90;95143.84;5011197;28;20205;-75
2020/12/15 09:25:17;;;;;;;19.70;11.40;;;;;;;6.88;69.47;95136.69;5009906;28;21216;-74
2020/12/15 09:27:44;;;;;;;20.20;11.50;;;;;;;6.89;70.16;95142.78;5009610;28;20221;-73
2020/12/15 09:30:12;;;;;;;23.43;11.37;;;;;;;6.94;70.53;95137.28;5011250;28;20165;-75
2020/12/15 09:32:38;;;;;;;20.87;11.53;;;;;;;6.95;69.78;95130.88;5011994;28;21092;-74
2020/12/15 09:35:03;;;;;;;18.83;10.67;;;;;;;6.98;69.97;95129.50;5014881;28;20619;-76
2020/12/15 09:37:29;;;;;;;18.07;10.60;;;;;;;7.07;70.61;95127.59;5025865;28;20180;-75
2020/12/15 09:39:54;;;;;;;25.10;10.60;;;;;;;7.19;70.82;95130.38;5034626;28;20192;-76
2020/12/15 09:42:20;;;;;;;19.00;10.20;;;;;;;7.42;71.11;95125.63;5033987;28;20632;-74
2020/12/15 09:44:47;;;;;;;17.67;9.83;;;;;;;7.40;69.45;95120.59;5034372;28;20187;-75
2020/12/15 09:47:12;;;;;;;22.20;10.63;;;;;;;7.58;69.00;95129.31;5033539;28;20177;-76
2020/12/15 09:49:38;;;;;;;14.20;8.23;;;;;;;7.60;73.76;95129.75;5034296;28;20675;-76
2020/12/15 09:52:03;;;;;;;12.00;6.70;;;;;;;7.52;68.52;95127.94;5034258;28;20200;-74
2020/12/15 09:54:29;;;;;;;10.67;5.77;;;;;;;7.67;66.26;95114.09;5033859;28;20256;-77
2020/12/15 09:56:54;;;;;;;9.10;6.07;;;;;;;7.44;68.54;95115.44;5034176;28;20230;-75
2020/12/15 09:59:20;;;;;;;10.50;5.87;;;;;;;7.50;69.36;95118.69;5033723;28;20223;-76
2020/12/15 10:01:45;;;;;;;9.40;6.53;;;;;;;7.47;67.52;95120.13;5034319;28;20702;-75
2020/12/15 10:04:11;;;;;;;10.30;6.90;;;;;;;7.49;67.48;95109.19;5033992;28;20160;-77
2020/12/15 10:06:37;;;;;;;14.00;7.20;;;;;;;7.60;68.34;95105.84;5034145;28;20174;-76
2020/12/15 10:09:03;;;;;;;8.47;5.83;;;;;;;7.79;66.32;95109.97;5033965;28;20194;-75
2020/12/15 10:11:29;;;;;;;10.23;6.17;;;;;;;7.77;66.40;95101.53;5034290;28;20180;-73
2020/12/15 10:13:55;;;;;;;10.33;5.73;;;;;;;7.89;64.83;95098.97;5033664;28;20670;-75
2020/12/15 10:16:20;;;;;;;10.77;5.93;;;;;;;7.93;65.71;95100.66;5033789;28;20181;-74
2020/12/15 10:18:46;;;;;;;9.90;6.43;;;;;;;8.09;65.70;95111.53;5034031;28;20258;-75
2020/12/15 10:21:11;;;;;;;8.27;5.60;;;;;;;8.11;66.04;95101.31;5033772;28;20594;-73
2020/12/15 10:23:37;;;;;;;8.23;5.47;;;;;;;8.22;65.25;95107.03;5033612;28;20548;-74
2020/12/15 10:26:03;;;;;;;9.53;6.77;;;;;;;8.28;65.43;95110.28;5033363;28;20217;-75
2020/12/15 10:28:29;;;;;;;11.60;7.20;;;;;;;8.16;66.39;95117.09;5033546;28;20172;-74
2020/12/15 10:30:54;;;;;;;10.73;6.80;;;;;;;8.25;65.10;95108.25;5033161;28;21212;-75
2020/12/15 10:33:20;;;;;;;10.77;6.63;;;;;;;8.06;65.71;95111.38;5033750;28;20184;-74
2020/12/15 10:35:45;;;;;;;13.33;8.20;;;;;;;7.96;65.31;95109.84;5031982;28;20199;-74
2020/12/15 10:38:11;;;;;;;13.33;7.60;;;;;;;7.83;65.33;95110.88;5033811;28;20165;-75
2020/12/15 10:40:37;;;;;;;12.87;8.30;;;;;;;7.77;66.33;95107.63;5033285;28;20666;-74
2020/12/15 10:43:02;;;;;;;13.67;8.20;;;;;;;7.91;63.87;95102.06;5032793;28;20254;-73
2020/12/15 10:45:28;;;;;;;11.10;6.93;;;;;;;7.87;64.67;95101.19;5033012;28;20201;-71
2020/12/15 10:47:53;;;;;;;14.60;8.33;;;;;;;7.95;65.50;95095.78;5032975;28;20176;-72
2020/12/15 10:50:19;;;;;;;12.30;7.80;;;;;;;8.08;65.11;95090.53;5033241;28;20207;-73
2020/12/15 10:52:44;;;;;;;16.00;9.13;;;;;;;8.19;65.46;95091.72;5033098;28;20211;-74
2020/12/15 10:55:10;;;;;;;14.70;9.83;;;;;;;8.26;65.98;95091.22;5033082;28;20572;-73
2020/12/15 10:57:36;;;;;;;18.73;9.77;;;;;;;8.31;64.56;95083.81;5032657;28;20266;-72
2020/12/15 11:00:05;;;;;;;13.77;7.77;;;;;;;8.33;66.22;95086.16;5032998;28;20579;-72
2020/12/15 11:02:32;;;;;;;15.80;8.87;;;;;;;8.22;66.40;95078.56;5032783;28;20196;-73
2020/12/15 11:04:58;;;;;;;15.27;8.90;;;;;;;8.13;65.74;95071.75;5032892;28;20586;-74
2020/12/15 11:07:23;;;;;;;15.77;8.80;;;;;;;8.17;66.61;95073.44;5032931;28;20614;-73
2020/12/15 11:09:49;;;;;;;13.20;8.23;;;;;;;8.18;65.91;95074.19;5032973;28;20204;-74
2020/12/15 11:12:14;;;;;;;11.90;7.73;;;;;;;8.13;65.29;95069.84;5032687;28;20247;-73
2020/12/15 11:14:40;;;;;;;13.23;7.37;;;;;;;8.11;66.03;95065.97;5032483;28;20173;-74
2020/12/15 11:17:05;;;;;;;11.87;6.80;;;;;;;8.00;66.55;95078.09;5031298;28;20200;-73
2020/12/15 11:19:31;;;;;;;16.47;8.43;;;;;;;7.96;65.96;95072.63;5032324;28;20617;-73
2020/12/15 11:21:56;;;;;;;14.40;8.07;;;;;;;8.07;65.99;95062.41;5032382;28;20224;-74
2020/12/15 11:24:22;;;;;;;15.67;8.63;;;;;;;7.94;67.00;95053.56;5032543;28;20269;-74
2020/12/15 11:26:50;;;;;;;16.83;8.57;;;;;;;8.08;67.77;95061.28;5032625;28;20580;-73
2020/12/15 11:29:16;;;;;;;16.80;9.50;;;;;;;8.20;68.16;95056.06;5032142;28;20175;-74
2020/12/15 11:31:41;;;;;;;14.37;9.17;;;;;;;8.41;65.59;95061.38;5032217;28;21019;-71